sensor_id;sensor_type;location;lat;lon;timestamp;P1;durP1;ratioP1;P2;durP2;ratioP2
52734;SDS011;38631;47.572;10.704;2023-12-07T00:01:03;7.18;;;5.05;;
52734;SDS011;38631;47.572;10.704;2023-12-07T00:03:29;9.00;;;5.43;;
52734;SDS011;38631;47.572;10.704;2023-12-07T00:05:55;8.57;;;5.80;;
52734;SDS011;38631;47.572;10.704;2023-12-07T00:08:20;8.32;;;5.65;;
52734;SDS011;38631;47.572;10.704;2023-12-07T00:10:45;7.05;;;4.90;;
52734;SDS011;38631;47.572;10.704;2023-12-07T00:13:11;7.38;;;5.45;;
52734;SDS011;38631;47.572;10.704;2023-12-07T00:15:36;8.25;;;5.25;;
52734;SDS011;38631;47.572;10.704;2023-12-07T00:18:01;8.23;;;5.32;;
52734;SDS011;38631;47.572;10.704;2023-12-07T00:20:28;7.68;;;5.50;;
52734;SDS011;38631;47.572;10.704;2023-12-07T00:22:53;8.30;;;5.50;;
52734;SDS011;38631;47.572;10.704;2023-12-07T00:25:19;7.65;;;5.30;;
52734;SDS011;38631;47.572;10.704;2023-12-07T00:27:44;9.48;;;6.13;;
52734;SDS011;38631;47.572;10.704;2023-12-07T00:30:10;7.07;;;5.53;;
52734;SDS011;38631;47.572;10.704;2023-12-07T00:32:36;8.43;;;5.55;;
52734;SDS011;38631;47.572;10.704;2023-12-07T00:35:01;8.88;;;6.15;;
52734;SDS011;38631;47.572;10.704;2023-12-07T00:37:26;7.60;;;5.80;;
52734;SDS011;38631;47.572;10.704;2023-12-07T00:39:52;7.78;;;5.53;;
52734;SDS011;38631;47.572;10.704;2023-12-07T00:42:17;10.70;;;6.22;;
52734;SDS011;38631;47.572;10.704;2023-12-07T00:44:43;9.85;;;6.38;;
52734;SDS011;38631;47.572;10.704;2023-12-07T00:47:08;9.50;;;5.85;;
52734;SDS011;38631;47.572;10.704;2023-12-07T00:49:37;8.35;;;5.90;;
52734;SDS011;38631;47.572;10.704;2023-12-07T00:52:06;9.13;;;5.82;;
52734;SDS011;38631;47.572;10.704;2023-12-07T00:54:32;10.65;;;7.25;;
52734;SDS011;38631;47.572;10.704;2023-12-07T00:56:57;7.82;;;5.90;;
52734;SDS011;38631;47.572;10.704;2023-12-07T00:59:23;8.82;;;6.30;;
52734;SDS011;38631;47.572;10.704;2023-12-07T01:01:48;9.77;;;6.43;;
52734;SDS011;38631;47.572;10.704;2023-12-07T01:04:14;8.73;;;5.80;;
52734;SDS011;38631;47.572;10.704;2023-12-07T01:06:39;11.88;;;7.13;;
52734;SDS011;38631;47.572;10.704;2023-12-07T01:09:04;11.02;;;7.38;;
52734;SDS011;38631;47.572;10.704;2023-12-07T01:11:30;12.77;;;7.85;;
52734;SDS011;38631;47.572;10.704;2023-12-07T01:13:55;10.05;;;6.80;;
52734;SDS011;38631;47.572;10.704;2023-12-07T01:16:21;8.75;;;6.10;;
52734;SDS011;38631;47.572;10.704;2023-12-07T01:18:46;9.10;;;6.28;;
52734;SDS011;38631;47.572;10.704;2023-12-07T01:21:12;9.95;;;7.13;;
52734;SDS011;38631;47.572;10.704;2023-12-07T01:23:37;8.43;;;6.35;;
52734;SDS011;38631;47.572;10.704;2023-12-07T01:26:02;9.35;;;6.30;;
52734;SDS011;38631;47.572;10.704;2023-12-07T01:28:28;8.75;;;6.03;;
52734;SDS011;38631;47.572;10.704;2023-12-07T01:30:53;10.75;;;6.72;;
52734;SDS011;38631;47.572;10.704;2023-12-07T01:33:19;9.43;;;6.78;;
52734;SDS011;38631;47.572;10.704;2023-12-07T01:35:45;9.88;;;6.70;;
52734;SDS011;38631;47.572;10.704;2023-12-07T01:38:10;9.15;;;6.18;;
52734;SDS011;38631;47.572;10.704;2023-12-07T01:40:35;9.50;;;6.43;;
52734;SDS011;38631;47.572;10.704;2023-12-07T01:43:01;9.75;;;6.65;;
52734;SDS011;38631;47.572;10.704;2023-12-07T01:45:26;9.88;;;7.07;;
52734;SDS011;38631;47.572;10.704;2023-12-07T01:47:51;10.85;;;7.30;;
52734;SDS011;38631;47.572;10.704;2023-12-07T01:50:19;11.27;;;7.28;;
52734;SDS011;38631;47.572;10.704;2023-12-07T01:52:48;11.25;;;7.10;;
52734;SDS011;38631;47.572;10.704;2023-12-07T01:55:16;10.40;;;6.70;;
52734;SDS011;38631;47.572;10.704;2023-12-07T01:57:43;10.70;;;7.30;;
52734;SDS011;38631;47.572;10.704;2023-12-07T02:00:10;11.98;;;8.02;;
52734;SDS011;38631;47.572;10.704;2023-12-07T02:02:37;11.68;;;8.00;;
52734;SDS011;38631;47.572;10.704;2023-12-07T02:05:03;12.88;;;8.90;;
52734;SDS011;38631;47.572;10.704;2023-12-07T02:07:29;12.05;;;8.50;;
52734;SDS011;38631;47.572;10.704;2023-12-07T02:09:55;13.35;;;8.88;;
52734;SDS011;38631;47.572;10.704;2023-12-07T02:12:23;12.10;;;8.55;;
52734;SDS011;38631;47.572;10.704;2023-12-07T02:14:49;13.43;;;8.57;;
52734;SDS011;38631;47.572;10.704;2023-12-07T02:17:33;13.75;;;9.07;;
52734;SDS011;38631;47.572;10.704;2023-12-07T02:22:47;13.38;;;8.60;;
52734;SDS011;38631;47.572;10.704;2023-12-07T02:25:18;13.57;;;8.38;;
52734;SDS011;38631;47.572;10.704;2023-12-07T02:27:44;14.05;;;8.90;;
52734;SDS011;38631;47.572;10.704;2023-12-07T02:30:11;11.23;;;7.72;;
52734;SDS011;38631;47.572;10.704;2023-12-07T02:32:38;11.43;;;8.00;;
52734;SDS011;38631;47.572;10.704;2023-12-07T02:35:09;14.80;;;8.52;;
52734;SDS011;38631;47.572;10.704;2023-12-07T02:37:40;13.15;;;7.40;;
52734;SDS011;38631;47.572;10.704;2023-12-07T02:40:09;12.48;;;7.63;;
52734;SDS011;38631;47.572;10.704;2023-12-07T02:42:37;12.98;;;8.32;;
52734;SDS011;38631;47.572;10.704;2023-12-07T02:45:03;10.65;;;7.15;;
52734;SDS011;38631;47.572;10.704;2023-12-07T02:47:30;13.38;;;8.75;;
52734;SDS011;38631;47.572;10.704;2023-12-07T02:49:55;12.75;;;8.02;;
52734;SDS011;38631;47.572;10.704;2023-12-07T02:52:20;13.15;;;8.13;;
52734;SDS011;38631;47.572;10.704;2023-12-07T02:54:46;12.38;;;8.27;;
52734;SDS011;38631;47.572;10.704;2023-12-07T02:57:13;14.32;;;8.38;;
52734;SDS011;38631;47.572;10.704;2023-12-07T02:59:39;13.27;;;8.05;;
52734;SDS011;38631;47.572;10.704;2023-12-07T03:02:05;12.40;;;7.78;;
52734;SDS011;38631;47.572;10.704;2023-12-07T03:04:31;11.45;;;7.65;;
52734;SDS011;38631;47.572;10.704;2023-12-07T03:06:56;11.73;;;8.38;;
52734;SDS011;38631;47.572;10.704;2023-12-07T03:09:21;13.10;;;8.85;;
52734;SDS011;38631;47.572;10.704;2023-12-07T03:11:47;11.50;;;8.07;;
52734;SDS011;38631;47.572;10.704;2023-12-07T03:14:12;13.45;;;9.13;;
52734;SDS011;38631;47.572;10.704;2023-12-07T03:16:38;12.63;;;7.95;;
52734;SDS011;38631;47.572;10.704;2023-12-07T03:19:04;10.98;;;7.82;;
52734;SDS011;38631;47.572;10.704;2023-12-07T03:21:29;12.48;;;7.72;;
52734;SDS011;38631;47.572;10.704;2023-12-07T03:23:54;11.82;;;7.50;;
52734;SDS011;38631;47.572;10.704;2023-12-07T03:26:20;12.23;;;7.97;;
52734;SDS011;38631;47.572;10.704;2023-12-07T03:28:45;10.77;;;7.57;;
52734;SDS011;38631;47.572;10.704;2023-12-07T03:31:11;12.18;;;7.57;;
52734;SDS011;38631;47.572;10.704;2023-12-07T03:33:36;11.27;;;8.38;;
52734;SDS011;38631;47.572;10.704;2023-12-07T03:36:03;11.68;;;7.75;;
52734;SDS011;38631;47.572;10.704;2023-12-07T03:38:29;11.95;;;7.45;;
52734;SDS011;38631;47.572;10.704;2023-12-07T03:40:54;14.77;;;7.55;;
52734;SDS011;38631;47.572;10.704;2023-12-07T03:43:19;13.35;;;7.50;;
52734;SDS011;38631;47.572;10.704;2023-12-07T03:45:45;13.60;;;8.68;;
52734;SDS011;38631;47.572;10.704;2023-12-07T03:48:11;13.35;;;8.15;;
52734;SDS011;38631;47.572;10.704;2023-12-07T03:50:36;11.85;;;8.10;;
52734;SDS011;38631;47.572;10.704;2023-12-07T03:53:01;11.18;;;7.43;;
52734;SDS011;38631;47.572;10.704;2023-12-07T03:55:27;12.82;;;7.95;;
52734;SDS011;38631;47.572;10.704;2023-12-07T03:57:52;13.27;;;8.30;;
52734;SDS011;38631;47.572;10.704;2023-12-07T04:00:18;14.35;;;8.38;;
52734;SDS011;38631;47.572;10.704;2023-12-07T04:02:43;12.32;;;7.93;;
52734;SDS011;38631;47.572;10.704;2023-12-07T04:05:08;15.13;;;8.70;;
52734;SDS011;38631;47.572;10.704;2023-12-07T04:07:34;11.00;;;7.18;;
52734;SDS011;38631;47.572;10.704;2023-12-07T04:09:59;14.00;;;8.70;;
52734;SDS011;38631;47.572;10.704;2023-12-07T04:12:25;12.20;;;7.80;;
52734;SDS011;38631;47.572;10.704;2023-12-07T04:14:50;12.43;;;8.27;;
52734;SDS011;38631;47.572;10.704;2023-12-07T04:17:16;10.25;;;6.93;;
52734;SDS011;38631;47.572;10.704;2023-12-07T04:19:42;13.45;;;7.28;;
52734;SDS011;38631;47.572;10.704;2023-12-07T04:22:07;11.13;;;7.03;;
52734;SDS011;38631;47.572;10.704;2023-12-07T04:24:33;11.95;;;7.38;;
52734;SDS011;38631;47.572;10.704;2023-12-07T04:26:58;11.27;;;7.28;;
52734;SDS011;38631;47.572;10.704;2023-12-07T04:29:23;10.57;;;6.70;;
52734;SDS011;38631;47.572;10.704;2023-12-07T04:31:49;12.48;;;7.38;;
52734;SDS011;38631;47.572;10.704;2023-12-07T04:34:14;15.70;;;8.15;;
52734;SDS011;38631;47.572;10.704;2023-12-07T04:36:39;10.95;;;7.18;;
52734;SDS011;38631;47.572;10.704;2023-12-07T04:39:05;13.48;;;8.70;;
52734;SDS011;38631;47.572;10.704;2023-12-07T04:41:30;14.32;;;8.98;;
52734;SDS011;38631;47.572;10.704;2023-12-07T04:43:55;13.98;;;8.77;;
52734;SDS011;38631;47.572;10.704;2023-12-07T04:46:21;15.85;;;8.43;;
52734;SDS011;38631;47.572;10.704;2023-12-07T04:48:46;13.07;;;8.63;;
52734;SDS011;38631;47.572;10.704;2023-12-07T04:51:11;13.50;;;8.88;;
52734;SDS011;38631;47.572;10.704;2023-12-07T04:53:37;12.25;;;8.02;;
52734;SDS011;38631;47.572;10.704;2023-12-07T04:56:02;13.68;;;8.70;;
52734;SDS011;38631;47.572;10.704;2023-12-07T04:58:28;11.32;;;7.93;;
52734;SDS011;38631;47.572;10.704;2023-12-07T05:00:53;15.43;;;8.65;;
52734;SDS011;38631;47.572;10.704;2023-12-07T05:03:18;16.83;;;9.43;;
52734;SDS011;38631;47.572;10.704;2023-12-07T05:05:44;13.15;;;7.70;;
52734;SDS011;38631;47.572;10.704;2023-12-07T05:08:09;12.55;;;7.93;;
52734;SDS011;38631;47.572;10.704;2023-12-07T05:10:34;12.00;;;7.65;;
52734;SDS011;38631;47.572;10.704;2023-12-07T05:13:00;12.10;;;7.15;;
52734;SDS011;38631;47.572;10.704;2023-12-07T05:15:25;11.07;;;7.22;;
52734;SDS011;38631;47.572;10.704;2023-12-07T05:17:51;13.07;;;7.85;;
52734;SDS011;38631;47.572;10.704;2023-12-07T05:20:16;11.43;;;7.20;;
52734;SDS011;38631;47.572;10.704;2023-12-07T05:22:43;10.60;;;6.65;;
52734;SDS011;38631;47.572;10.704;2023-12-07T05:25:08;15.02;;;7.43;;
52734;SDS011;38631;47.572;10.704;2023-12-07T05:27:34;10.88;;;6.93;;
52734;SDS011;38631;47.572;10.704;2023-12-07T05:29:59;13.07;;;7.72;;
52734;SDS011;38631;47.572;10.704;2023-12-07T05:32:25;12.02;;;7.82;;
52734;SDS011;38631;47.572;10.704;2023-12-07T05:34:50;11.48;;;7.20;;
52734;SDS011;38631;47.572;10.704;2023-12-07T05:37:15;17.65;;;8.88;;
52734;SDS011;38631;47.572;10.704;2023-12-07T05:39:41;17.08;;;10.52;;
52734;SDS011;38631;47.572;10.704;2023-12-07T05:42:06;16.83;;;9.95;;
52734;SDS011;38631;47.572;10.704;2023-12-07T05:44:31;19.27;;;11.65;;
52734;SDS011;38631;47.572;10.704;2023-12-07T05:46:57;15.20;;;9.80;;
52734;SDS011;38631;47.572;10.704;2023-12-07T05:49:22;18.52;;;11.00;;
52734;SDS011;38631;47.572;10.704;2023-12-07T05:51:48;22.75;;;13.48;;
52734;SDS011;38631;47.572;10.704;2023-12-07T05:54:14;26.83;;;17.10;;
52734;SDS011;38631;47.572;10.704;2023-12-07T05:56:39;16.38;;;11.75;;
52734;SDS011;38631;47.572;10.704;2023-12-07T05:59:05;16.63;;;11.20;;
52734;SDS011;38631;47.572;10.704;2023-12-07T06:01:31;17.90;;;10.68;;
52734;SDS011;38631;47.572;10.704;2023-12-07T06:03:57;14.93;;;9.90;;
52734;SDS011;38631;47.572;10.704;2023-12-07T06:06:22;16.73;;;10.48;;
52734;SDS011;38631;47.572;10.704;2023-12-07T06:08:48;16.27;;;9.93;;
52734;SDS011;38631;47.572;10.704;2023-12-07T06:11:13;13.60;;;9.32;;
52734;SDS011;38631;47.572;10.704;2023-12-07T06:13:39;14.90;;;9.50;;
52734;SDS011;38631;47.572;10.704;2023-12-07T06:16:05;14.25;;;9.32;;
52734;SDS011;38631;47.572;10.704;2023-12-07T06:18:30;15.55;;;9.95;;
52734;SDS011;38631;47.572;10.704;2023-12-07T06:20:56;15.07;;;10.10;;
52734;SDS011;38631;47.572;10.704;2023-12-07T06:23:21;15.38;;;9.38;;
52734;SDS011;38631;47.572;10.704;2023-12-07T06:25:47;14.60;;;10.05;;
52734;SDS011;38631;47.572;10.704;2023-12-07T06:28:12;23.45;;;12.80;;
52734;SDS011;38631;47.572;10.704;2023-12-07T06:30:37;18.55;;;12.45;;
52734;SDS011;38631;47.572;10.704;2023-12-07T06:33:04;19.50;;;12.63;;
52734;SDS011;38631;47.572;10.704;2023-12-07T06:35:29;22.05;;;12.25;;
52734;SDS011;38631;47.572;10.704;2023-12-07T06:37:55;18.38;;;11.88;;
52734;SDS011;38631;47.572;10.704;2023-12-07T06:40:21;18.90;;;12.68;;
52734;SDS011;38631;47.572;10.704;2023-12-07T06:42:46;19.00;;;12.15;;
52734;SDS011;38631;47.572;10.704;2023-12-07T06:45:13;20.38;;;10.95;;
52734;SDS011;38631;47.572;10.704;2023-12-07T06:47:39;15.45;;;10.50;;
52734;SDS011;38631;47.572;10.704;2023-12-07T06:50:07;16.85;;;10.25;;
52734;SDS011;38631;47.572;10.704;2023-12-07T06:52:36;14.50;;;9.65;;
52734;SDS011;38631;47.572;10.704;2023-12-07T06:55:02;14.55;;;9.27;;
52734;SDS011;38631;47.572;10.704;2023-12-07T06:57:27;15.20;;;8.75;;
52734;SDS011;38631;47.572;10.704;2023-12-07T06:59:52;13.57;;;7.57;;
52734;SDS011;38631;47.572;10.704;2023-12-07T07:02:18;12.82;;;8.02;;
52734;SDS011;38631;47.572;10.704;2023-12-07T07:04:43;11.95;;;7.70;;
52734;SDS011;38631;47.572;10.704;2023-12-07T07:07:09;11.90;;;7.88;;
52734;SDS011;38631;47.572;10.704;2023-12-07T07:09:34;14.35;;;7.63;;
52734;SDS011;38631;47.572;10.704;2023-12-07T07:12:00;15.93;;;9.98;;
52734;SDS011;38631;47.572;10.704;2023-12-07T07:14:25;21.80;;;12.57;;
52734;SDS011;38631;47.572;10.704;2023-12-07T07:16:50;17.33;;;10.68;;
52734;SDS011;38631;47.572;10.704;2023-12-07T07:19:17;19.60;;;9.82;;
52734;SDS011;38631;47.572;10.704;2023-12-07T07:21:42;15.32;;;10.43;;
52734;SDS011;38631;47.572;10.704;2023-12-07T07:24:08;18.05;;;11.30;;
52734;SDS011;38631;47.572;10.704;2023-12-07T07:26:33;24.80;;;13.65;;
52734;SDS011;38631;47.572;10.704;2023-12-07T07:28:58;20.48;;;12.82;;
52734;SDS011;38631;47.572;10.704;2023-12-07T07:31:24;21.60;;;11.93;;
52734;SDS011;38631;47.572;10.704;2023-12-07T07:33:49;19.00;;;11.90;;
52734;SDS011;38631;47.572;10.704;2023-12-07T07:36:15;19.05;;;12.73;;
52734;SDS011;38631;47.572;10.704;2023-12-07T07:38:41;21.23;;;13.05;;
52734;SDS011;38631;47.572;10.704;2023-12-07T07:41:06;16.83;;;11.45;;
52734;SDS011;38631;47.572;10.704;2023-12-07T07:43:32;18.75;;;11.82;;
52734;SDS011;38631;47.572;10.704;2023-12-07T07:45:59;17.15;;;10.55;;
52734;SDS011;38631;47.572;10.704;2023-12-07T07:48:24;15.05;;;9.88;;
52734;SDS011;38631;47.572;10.704;2023-12-07T07:50:51;16.52;;;9.82;;
52734;SDS011;38631;47.572;10.704;2023-12-07T07:53:16;17.00;;;9.80;;
52734;SDS011;38631;47.572;10.704;2023-12-07T07:55:41;15.13;;;9.32;;
52734;SDS011;38631;47.572;10.704;2023-12-07T07:58:07;25.10;;;9.48;;
52734;SDS011;38631;47.572;10.704;2023-12-07T08:00:33;17.90;;;10.00;;
52734;SDS011;38631;47.572;10.704;2023-12-07T08:02:59;20.60;;;12.73;;
52734;SDS011;38631;47.572;10.704;2023-12-07T08:05:25;19.88;;;12.98;;
52734;SDS011;38631;47.572;10.704;2023-12-07T08:07:50;18.40;;;12.20;;
52734;SDS011;38631;47.572;10.704;2023-12-07T08:10:16;18.02;;;11.45;;
52734;SDS011;38631;47.572;10.704;2023-12-07T08:12:41;19.08;;;12.00;;
52734;SDS011;38631;47.572;10.704;2023-12-07T08:15:07;17.52;;;12.40;;
52734;SDS011;38631;47.572;10.704;2023-12-07T08:17:36;15.65;;;10.93;;
52734;SDS011;38631;47.572;10.704;2023-12-07T08:20:10;13.88;;;9.32;;
52734;SDS011;38631;47.572;10.704;2023-12-07T08:22:36;14.38;;;9.05;;
52734;SDS011;38631;47.572;10.704;2023-12-07T08:25:02;15.48;;;9.55;;
52734;SDS011;38631;47.572;10.704;2023-12-07T08:27:30;15.27;;;9.00;;
52734;SDS011;38631;47.572;10.704;2023-12-07T08:29:57;14.23;;;8.68;;
52734;SDS011;38631;47.572;10.704;2023-12-07T08:32:22;13.20;;;9.02;;
52734;SDS011;38631;47.572;10.704;2023-12-07T08:34:50;13.38;;;7.82;;
52734;SDS011;38631;47.572;10.704;2023-12-07T08:37:16;13.18;;;8.65;;
52734;SDS011;38631;47.572;10.704;2023-12-07T08:39:41;14.82;;;8.88;;
52734;SDS011;38631;47.572;10.704;2023-12-07T08:42:07;12.18;;;6.97;;
52734;SDS011;38631;47.572;10.704;2023-12-07T08:44:33;9.27;;;4.88;;
52734;SDS011;38631;47.572;10.704;2023-12-07T08:46:58;8.68;;;4.97;;
52734;SDS011;38631;47.572;10.704;2023-12-07T08:49:23;14.27;;;6.28;;
52734;SDS011;38631;47.572;10.704;2023-12-07T08:51:49;8.75;;;5.35;;
52734;SDS011;38631;47.572;10.704;2023-12-07T08:54:18;11.05;;;5.07;;
52734;SDS011;38631;47.572;10.704;2023-12-07T08:56:44;10.93;;;5.10;;
52734;SDS011;38631;47.572;10.704;2023-12-07T08:59:10;7.72;;;4.65;;
52734;SDS011;38631;47.572;10.704;2023-12-07T09:01:35;9.23;;;4.30;;
52734;SDS011;38631;47.572;10.704;2023-12-07T09:04:01;9.27;;;4.20;;
52734;SDS011;38631;47.572;10.704;2023-12-07T09:06:27;7.45;;;4.20;;
52734;SDS011;38631;47.572;10.704;2023-12-07T09:08:55;5.43;;;3.67;;
52734;SDS011;38631;47.572;10.704;2023-12-07T09:11:21;6.57;;;4.32;;
52734;SDS011;38631;47.572;10.704;2023-12-07T09:13:49;7.55;;;4.00;;
52734;SDS011;38631;47.572;10.704;2023-12-07T09:16:15;5.93;;;3.65;;
52734;SDS011;38631;47.572;10.704;2023-12-07T09:18:41;8.23;;;3.88;;
52734;SDS011;38631;47.572;10.704;2023-12-07T09:21:08;8.73;;;4.25;;
52734;SDS011;38631;47.572;10.704;2023-12-07T09:23:34;12.05;;;4.68;;
52734;SDS011;38631;47.572;10.704;2023-12-07T09:26:00;8.02;;;4.72;;
52734;SDS011;38631;47.572;10.704;2023-12-07T09:28:25;7.22;;;4.55;;
52734;SDS011;38631;47.572;10.704;2023-12-07T09:30:52;7.40;;;4.20;;
52734;SDS011;38631;47.572;10.704;2023-12-07T09:33:23;7.68;;;4.38;;
52734;SDS011;38631;47.572;10.704;2023-12-07T09:35:49;6.35;;;4.25;;
52734;SDS011;38631;47.572;10.704;2023-12-07T09:38:14;7.80;;;5.28;;
52734;SDS011;38631;47.572;10.704;2023-12-07T09:40:40;8.35;;;5.47;;
52734;SDS011;38631;47.572;10.704;2023-12-07T09:43:05;8.98;;;5.97;;
52734;SDS011;38631;47.572;10.704;2023-12-07T09:45:38;8.20;;;4.65;;
52734;SDS011;38631;47.572;10.704;2023-12-07T09:48:04;6.65;;;4.40;;
52734;SDS011;38631;47.572;10.704;2023-12-07T09:50:30;13.48;;;5.45;;
52734;SDS011;38631;47.572;10.704;2023-12-07T09:52:57;6.65;;;4.80;;
52734;SDS011;38631;47.572;10.704;2023-12-07T09:55:29;7.78;;;5.00;;
52734;SDS011;38631;47.572;10.704;2023-12-07T09:57:56;7.82;;;5.00;;
52734;SDS011;38631;47.572;10.704;2023-12-07T10:00:23;12.05;;;6.20;;
52734;SDS011;38631;47.572;10.704;2023-12-07T10:02:49;10.95;;;5.93;;
52734;SDS011;38631;47.572;10.704;2023-12-07T10:05:15;10.00;;;6.15;;
52734;SDS011;38631;47.572;10.704;2023-12-07T10:07:45;10.60;;;6.22;;
52734;SDS011;38631;47.572;10.704;2023-12-07T10:10:14;9.55;;;6.28;;
52734;SDS011;38631;47.572;10.704;2023-12-07T10:12:47;10.40;;;6.13;;
52734;SDS011;38631;47.572;10.704;2023-12-07T10:15:13;9.98;;;6.65;;
52734;SDS011;38631;47.572;10.704;2023-12-07T10:17:44;9.10;;;5.50;;
52734;SDS011;38631;47.572;10.704;2023-12-07T10:20:15;8.90;;;5.82;;
52734;SDS011;38631;47.572;10.704;2023-12-07T10:22:45;6.30;;;3.72;;
52734;SDS011;38631;47.572;10.704;2023-12-07T10:25:11;5.65;;;4.13;;
52734;SDS011;38631;47.572;10.704;2023-12-07T10:27:38;6.85;;;4.40;;
52734;SDS011;38631;47.572;10.704;2023-12-07T10:30:06;6.00;;;3.88;;
52734;SDS011;38631;47.572;10.704;2023-12-07T10:32:37;6.28;;;4.32;;
52734;SDS011;38631;47.572;10.704;2023-12-07T10:35:04;8.13;;;5.20;;
52734;SDS011;38631;47.572;10.704;2023-12-07T10:37:33;6.32;;;4.35;;
52734;SDS011;38631;47.572;10.704;2023-12-07T10:39:58;6.07;;;3.92;;
52734;SDS011;38631;47.572;10.704;2023-12-07T10:42:24;6.93;;;4.38;;
52734;SDS011;38631;47.572;10.704;2023-12-07T10:44:50;8.80;;;5.88;;
52734;SDS011;38631;47.572;10.704;2023-12-07T10:47:21;8.07;;;5.25;;
52734;SDS011;38631;47.572;10.704;2023-12-07T10:49:47;7.38;;;4.57;;
52734;SDS011;38631;47.572;10.704;2023-12-07T10:52:17;6.00;;;4.38;;
52734;SDS011;38631;47.572;10.704;2023-12-07T10:55:07;8.25;;;4.97;;
52734;SDS011;38631;47.572;10.704;2023-12-07T10:57:36;13.50;;;5.95;;
52734;SDS011;38631;47.572;10.704;2023-12-07T11:00:02;8.32;;;4.95;;
52734;SDS011;38631;47.572;10.704;2023-12-07T11:02:29;8.45;;;4.82;;
52734;SDS011;38631;47.572;10.704;2023-12-07T11:04:55;9.57;;;5.40;;
52734;SDS011;38631;47.572;10.704;2023-12-07T11:07:22;9.35;;;5.03;;
52734;SDS011;38631;47.572;10.704;2023-12-07T11:09:57;7.80;;;4.53;;
52734;SDS011;38631;47.572;10.704;2023-12-07T11:12:42;10.32;;;4.80;;
52734;SDS011;38631;47.572;10.704;2023-12-07T11:15:13;8.90;;;5.13;;
52734;SDS011;38631;47.572;10.704;2023-12-07T11:17:55;7.97;;;4.95;;
52734;SDS011;38631;47.572;10.704;2023-12-07T11:20:31;6.10;;;4.38;;
52734;SDS011;38631;47.572;10.704;2023-12-07T11:22:59;6.30;;;4.47;;
52734;SDS011;38631;47.572;10.704;2023-12-07T11:25:24;5.50;;;4.30;;
52734;SDS011;38631;47.572;10.704;2023-12-07T11:27:59;6.55;;;4.05;;
52734;SDS011;38631;47.572;10.704;2023-12-07T11:30:25;5.78;;;3.90;;
52734;SDS011;38631;47.572;10.704;2023-12-07T11:32:51;5.78;;;3.95;;
52734;SDS011;38631;47.572;10.704;2023-12-07T11:35:16;4.43;;;3.28;;
52734;SDS011;38631;47.572;10.704;2023-12-07T11:40:29;5.78;;;3.80;;
52734;SDS011;38631;47.572;10.704;2023-12-07T11:42:55;5.82;;;3.58;;
52734;SDS011;38631;47.572;10.704;2023-12-07T11:46:03;4.72;;;3.25;;
52734;SDS011;38631;47.572;10.704;2023-12-07T11:48:16;4.85;;;3.00;;
52734;SDS011;38631;47.572;10.704;2023-12-07T11:51:03;6.40;;;3.40;;
52734;SDS011;38631;47.572;10.704;2023-12-07T11:53:34;5.72;;;2.67;;
52734;SDS011;38631;47.572;10.704;2023-12-07T11:56:01;13.65;;;3.75;;
52734;SDS011;38631;47.572;10.704;2023-12-07T11:58:28;6.22;;;3.25;;
52734;SDS011;38631;47.572;10.704;2023-12-07T12:00:55;5.70;;;3.47;;
52734;SDS011;38631;47.572;10.704;2023-12-07T12:03:26;6.63;;;2.85;;
52734;SDS011;38631;47.572;10.704;2023-12-07T12:05:53;3.92;;;2.75;;
52734;SDS011;38631;47.572;10.704;2023-12-07T12:08:19;7.40;;;3.45;;
52734;SDS011;38631;47.572;10.704;2023-12-07T12:10:46;6.75;;;3.83;;
52734;SDS011;38631;47.572;10.704;2023-12-07T12:13:12;5.85;;;3.67;;
52734;SDS011;38631;47.572;10.704;2023-12-07T12:15:40;5.10;;;3.13;;
52734;SDS011;38631;47.572;10.704;2023-12-07T12:18:06;4.53;;;3.00;;
52734;SDS011;38631;47.572;10.704;2023-12-07T12:20:32;6.93;;;4.18;;
52734;SDS011;38631;47.572;10.704;2023-12-07T12:22:58;3.10;;;2.33;;
52734;SDS011;38631;47.572;10.704;2023-12-07T12:25:25;3.13;;;1.95;;
52734;SDS011;38631;47.572;10.704;2023-12-07T12:27:53;3.25;;;2.13;;
52734;SDS011;38631;47.572;10.704;2023-12-07T12:30:20;4.72;;;2.47;;
52734;SDS011;38631;47.572;10.704;2023-12-07T12:32:47;4.88;;;2.40;;
52734;SDS011;38631;47.572;10.704;2023-12-07T12:35:14;4.05;;;2.20;;
52734;SDS011;38631;47.572;10.704;2023-12-07T12:37:43;4.57;;;2.60;;
52734;SDS011;38631;47.572;10.704;2023-12-07T12:40:10;54.33;;;26.63;;
52734;SDS011;38631;47.572;10.704;2023-12-07T12:42:36;9.52;;;5.15;;
52734;SDS011;38631;47.572;10.704;2023-12-07T12:45:03;4.95;;;3.38;;
52734;SDS011;38631;47.572;10.704;2023-12-07T12:47:30;4.78;;;3.63;;
52734;SDS011;38631;47.572;10.704;2023-12-07T12:49:56;5.18;;;2.90;;
52734;SDS011;38631;47.572;10.704;2023-12-07T12:52:23;3.92;;;2.70;;
52734;SDS011;38631;47.572;10.704;2023-12-07T12:54:50;3.42;;;2.55;;
52734;SDS011;38631;47.572;10.704;2023-12-07T12:57:16;3.40;;;2.20;;
52734;SDS011;38631;47.572;10.704;2023-12-07T12:59:44;3.78;;;2.30;;
52734;SDS011;38631;47.572;10.704;2023-12-07T13:02:10;3.47;;;2.55;;
52734;SDS011;38631;47.572;10.704;2023-12-07T13:04:35;4.03;;;2.65;;
52734;SDS011;38631;47.572;10.704;2023-12-07T13:07:01;4.72;;;2.83;;
52734;SDS011;38631;47.572;10.704;2023-12-07T13:09:26;4.18;;;2.88;;
52734;SDS011;38631;47.572;10.704;2023-12-07T13:11:52;6.20;;;3.47;;
52734;SDS011;38631;47.572;10.704;2023-12-07T13:14:17;5.00;;;3.05;;
52734;SDS011;38631;47.572;10.704;2023-12-07T13:16:42;4.07;;;3.05;;
52734;SDS011;38631;47.572;10.704;2023-12-07T13:19:08;7.43;;;3.65;;
52734;SDS011;38631;47.572;10.704;2023-12-07T13:21:33;9.90;;;4.75;;
52734;SDS011;38631;47.572;10.704;2023-12-07T13:23:58;7.95;;;4.28;;
52734;SDS011;38631;47.572;10.704;2023-12-07T13:26:24;5.43;;;3.70;;
52734;SDS011;38631;47.572;10.704;2023-12-07T13:28:50;6.00;;;3.45;;
52734;SDS011;38631;47.572;10.704;2023-12-07T13:31:15;6.18;;;3.63;;
52734;SDS011;38631;47.572;10.704;2023-12-07T13:33:40;4.38;;;3.17;;
52734;SDS011;38631;47.572;10.704;2023-12-07T13:36:06;5.78;;;3.88;;
52734;SDS011;38631;47.572;10.704;2023-12-07T13:38:32;14.18;;;7.93;;
52734;SDS011;38631;47.572;10.704;2023-12-07T13:40:59;10.38;;;5.72;;
52734;SDS011;38631;47.572;10.704;2023-12-07T13:43:25;7.90;;;4.90;;
52734;SDS011;38631;47.572;10.704;2023-12-07T13:45:50;9.50;;;6.30;;
52734;SDS011;38631;47.572;10.704;2023-12-07T13:48:16;7.00;;;4.93;;
52734;SDS011;38631;47.572;10.704;2023-12-07T13:50:42;7.55;;;4.75;;
52734;SDS011;38631;47.572;10.704;2023-12-07T13:53:08;13.82;;;6.22;;
52734;SDS011;38631;47.572;10.704;2023-12-07T13:55:35;12.65;;;6.50;;
52734;SDS011;38631;47.572;10.704;2023-12-07T13:58:02;12.20;;;5.97;;
52734;SDS011;38631;47.572;10.704;2023-12-07T14:00:28;11.18;;;5.40;;
52734;SDS011;38631;47.572;10.704;2023-12-07T14:02:53;9.05;;;5.47;;
52734;SDS011;38631;47.572;10.704;2023-12-07T14:05:19;15.38;;;8.35;;
52734;SDS011;38631;47.572;10.704;2023-12-07T14:07:44;14.82;;;8.10;;
52734;SDS011;38631;47.572;10.704;2023-12-07T14:10:10;12.20;;;6.97;;
52734;SDS011;38631;47.572;10.704;2023-12-07T14:12:36;14.35;;;8.10;;
52734;SDS011;38631;47.572;10.704;2023-12-07T14:15:02;11.18;;;6.90;;
52734;SDS011;38631;47.572;10.704;2023-12-07T14:17:28;15.38;;;9.25;;
52734;SDS011;38631;47.572;10.704;2023-12-07T14:20:02;16.35;;;9.82;;
52734;SDS011;38631;47.572;10.704;2023-12-07T14:22:29;9.52;;;6.68;;
52734;SDS011;38631;47.572;10.704;2023-12-07T14:24:54;9.55;;;5.78;;
52734;SDS011;38631;47.572;10.704;2023-12-07T14:27:19;7.03;;;4.65;;